createdAt,value
2022-11-05T00:00:41.763Z,12.70
2022-11-05T00:03:27.562Z,12.93
2022-11-05T00:06:19.038Z,13.52
2022-11-05T00:09:06.720Z,13.45
2022-11-05T00:12:03.933Z,15.60
2022-11-05T00:14:47.525Z,13.27
2022-11-05T00:17:16.371Z,15.38
2022-11-05T00:19:44.755Z,13.77
2022-11-05T00:22:32.007Z,13.82
2022-11-05T00:25:18.497Z,13.52
2022-11-05T00:27:51.973Z,14.85
2022-11-05T00:30:22.209Z,14.82
2022-11-05T00:32:55.178Z,15.13
2022-11-05T00:35:24.669Z,14.50
2022-11-05T00:37:55.420Z,14.60
2022-11-05T00:40:25.822Z,14.73
2022-11-05T00:43:13.697Z,14.57
2022-11-05T00:45:42.610Z,14.95
2022-11-05T00:48:30.881Z,15.05
2022-11-05T00:51:00.812Z,15.75
2022-11-05T00:53:30.261Z,15.63
2022-11-05T00:55:58.527Z,15.85
2022-11-05T00:58:30.689Z,14.85
2022-11-05T01:01:03.585Z,16.00
2022-11-05T01:03:33.871Z,15.50
2022-11-05T01:06:08.931Z,15.40
2022-11-05T01:08:38.413Z,14.68
2022-11-05T01:11:33.267Z,15.68
2022-11-05T01:14:02.757Z,15.60
2022-11-05T01:16:30.836Z,15.80
2022-11-05T01:18:59.271Z,15.10
2022-11-05T01:21:28.682Z,14.75
2022-11-05T01:24:00.212Z,16.40
2022-11-05T01:26:29.166Z,14.68
2022-11-05T01:29:01.340Z,15.27
2022-11-05T01:31:29.929Z,15.05
2022-11-05T01:33:58.234Z,17.08
2022-11-05T01:36:26.672Z,16.10
2022-11-05T01:38:54.799Z,15.27
2022-11-05T01:41:25.119Z,17.50
2022-11-05T01:43:57.608Z,16.25
2022-11-05T01:46:28.882Z,16.63
2022-11-05T01:49:02.927Z,15.27
2022-11-05T01:51:34.060Z,16.98
2022-11-05T01:54:04.226Z,15.70
2022-11-05T01:56:36.320Z,17.33
2022-11-05T01:59:07.154Z,18.08
2022-11-05T02:01:35.411Z,17.23
2022-11-05T02:04:11.864Z,16.45
2022-11-05T02:06:46.745Z,15.82
2022-11-05T02:09:21.192Z,17.15
2022-11-05T02:11:51.261Z,16.20
2022-11-05T02:14:20.689Z,16.95
2022-11-05T02:16:56.543Z,16.08
2022-11-05T02:20:03.675Z,16.55
2022-11-05T02:23:10.064Z,16.35
2022-11-05T02:26:05.533Z,16.40
2022-11-05T02:28:55.773Z,16.20
2022-11-05T02:31:28.138Z,15.73
2022-11-05T02:36:52.215Z,15.85
2022-11-05T02:39:30.322Z,15.32
2022-11-05T02:42:05.330Z,14.25
2022-11-05T02:44:38.619Z,15.60
2022-11-05T02:47:17.870Z,16.13
2022-11-05T02:49:53.903Z,15.25
2022-11-05T02:52:41.883Z,14.65
2022-11-05T02:55:19.375Z,13.50
2022-11-05T02:57:48.668Z,13.60
2022-11-05T03:00:45.452Z,13.30
2022-11-05T03:03:28.453Z,14.18
2022-11-05T03:06:13.275Z,14.50
2022-11-05T03:08:52.341Z,13.45
2022-11-05T03:11:25.354Z,11.93
2022-11-05T03:14:03.928Z,13.10
2022-11-05T03:16:35.173Z,12.50
2022-11-05T03:19:10.230Z,11.43
2022-11-05T03:21:45.712Z,12.60
2022-11-05T03:24:17.389Z,12.40
2022-11-05T03:26:52.465Z,15.02
2022-11-05T03:29:25.156Z,12.65
2022-11-05T03:31:55.698Z,11.75
2022-11-05T03:34:35.075Z,10.43
2022-11-05T03:37:03.828Z,11.45
2022-11-05T03:39:38.451Z,11.52
2022-11-05T03:42:10.593Z,10.88
2022-11-05T03:44:41.488Z,10.80
2022-11-05T03:47:12.166Z,10.95
2022-11-05T03:49:45.723Z,10.77
2022-11-05T03:52:18.481Z,12.02
2022-11-05T03:54:47.563Z,10.48
2022-11-05T03:57:19.343Z,11.50
2022-11-05T03:59:51.111Z,11.10
2022-11-05T04:02:23.391Z,11.35
2022-11-05T04:07:39.991Z,9.77
2022-11-05T04:10:27.823Z,10.48
2022-11-05T04:13:14.778Z,10.80
2022-11-05T04:15:57.299Z,10.45
2022-11-05T04:21:13.361Z,11.85
2022-11-05T04:24:05.461Z,9.73
2022-11-05T04:26:34.538Z,9.10
2022-11-05T04:29:23.575Z,10.43
2022-11-05T04:31:52.059Z,9.57
2022-11-05T04:34:22.192Z,9.82
2022-11-05T04:36:52.574Z,10.35
2022-11-05T04:39:25.843Z,9.25
2022-11-05T04:41:54.197Z,9.77
2022-11-05T04:44:22.871Z,10.60
2022-11-05T04:46:50.844Z,9.55
2022-11-05T04:49:21.271Z,9.38
2022-11-05T04:51:51.866Z,9.95
2022-11-05T04:54:20.032Z,10.68
2022-11-05T04:56:48.208Z,9.27
2022-11-05T04:59:18.488Z,9.48
2022-11-05T05:01:47.793Z,9.82
2022-11-05T05:04:16.043Z,10.07
2022-11-05T05:06:48.008Z,9.57
2022-11-05T05:09:21.000Z,9.30
2022-11-05T05:11:51.532Z,9.50
2022-11-05T05:14:19.826Z,9.35
2022-11-05T05:16:49.806Z,9.82
2022-11-05T05:19:19.180Z,9.32
2022-11-05T05:21:46.276Z,9.77
2022-11-05T05:24:17.671Z,11.10
2022-11-05T05:26:48.522Z,11.03
2022-11-05T05:29:21.111Z,11.13
2022-11-05T05:31:49.214Z,11.13
2022-11-05T05:34:18.594Z,10.88
2022-11-05T05:36:49.469Z,11.52
2022-11-05T05:39:21.430Z,11.77
2022-11-05T05:41:50.554Z,11.45
2022-11-05T05:44:19.194Z,12.07
2022-11-05T05:46:48.484Z,12.60
2022-11-05T05:49:18.043Z,12.18
2022-11-05T05:51:46.090Z,12.63
2022-11-05T05:54:15.020Z,13.32
2022-11-05T05:56:48.354Z,12.77
2022-11-05T05:59:16.695Z,11.77
2022-11-05T06:01:46.568Z,12.23
2022-11-05T06:04:17.177Z,12.13
2022-11-05T06:06:47.166Z,13.23
2022-11-05T06:09:17.909Z,14.48
2022-11-05T06:11:50.823Z,11.98
2022-11-05T06:14:20.412Z,13.38
2022-11-05T06:16:51.058Z,13.30
2022-11-05T06:19:19.544Z,13.20
2022-11-05T06:21:49.761Z,13.80
2022-11-05T06:24:18.045Z,14.60
2022-11-05T06:26:47.561Z,14.45
2022-11-05T06:29:16.130Z,14.30
2022-11-05T06:31:44.422Z,14.80
2022-11-05T06:34:13.926Z,15.50
2022-11-05T06:36:43.113Z,13.65
2022-11-05T06:39:12.069Z,14.50
2022-11-05T06:44:35.038Z,14.45
2022-11-05T06:47:03.207Z,15.32
2022-11-05T06:49:31.419Z,16.13
2022-11-05T06:51:59.513Z,14.48
2022-11-05T06:54:30.569Z,14.70
2022-11-05T06:56:59.106Z,13.85
2022-11-05T06:59:28.268Z,13.50
2022-11-05T07:02:02.185Z,13.23
2022-11-05T07:04:33.051Z,14.05
2022-11-05T07:07:04.264Z,12.35
2022-11-05T07:09:38.594Z,13.10
2022-11-05T07:12:09.237Z,13.90
2022-11-05T07:14:38.626Z,13.32
2022-11-05T07:17:11.097Z,12.95
2022-11-05T07:19:40.839Z,13.30
2022-11-05T07:22:10.797Z,13.02
2022-11-05T07:24:40.084Z,13.20
2022-11-05T07:27:40.129Z,12.07
2022-11-05T07:30:13.573Z,12.48
2022-11-05T07:32:43.680Z,13.02
2022-11-05T07:35:12.018Z,13.98
2022-11-05T07:37:45.414Z,12.30
2022-11-05T07:40:16.073Z,13.27
2022-11-05T07:42:46.204Z,13.43
2022-11-05T07:45:15.280Z,13.10
2022-11-05T07:47:48.880Z,13.98
2022-11-05T07:50:20.959Z,13.65
2022-11-05T07:52:58.035Z,13.13
2022-11-05T07:55:26.205Z,11.90
2022-11-05T07:57:54.802Z,13.18
2022-11-05T08:00:24.098Z,13.15
2022-11-05T08:03:08.081Z,11.88
2022-11-05T08:05:44.625Z,11.45
2022-11-05T08:08:15.456Z,10.35
2022-11-05T08:10:44.179Z,11.43
2022-11-05T08:13:14.333Z,11.45
2022-11-05T08:15:45.032Z,10.55
2022-11-05T08:18:21.434Z,9.45
2022-11-05T08:20:49.696Z,8.85
2022-11-05T08:23:19.089Z,9.35
2022-11-05T08:25:48.288Z,9.27
2022-11-05T08:28:17.487Z,8.68
2022-11-05T08:30:52.752Z,8.15
2022-11-05T08:33:25.975Z,10.10
2022-11-05T08:35:56.403Z,8.30
2022-11-05T08:38:24.401Z,7.68
2022-11-05T08:40:58.999Z,8.30
2022-11-05T08:43:27.343Z,8.35
2022-11-05T08:45:55.948Z,7.00
2022-11-05T08:48:29.211Z,7.47
2022-11-05T08:50:57.333Z,7.20
2022-11-05T08:53:25.562Z,6.25
2022-11-05T08:56:00.467Z,6.70
2022-11-05T08:58:29.429Z,6.45
2022-11-05T09:01:04.453Z,6.72
2022-11-05T09:03:35.481Z,6.63
2022-11-05T09:06:04.018Z,6.25
2022-11-05T09:08:32.507Z,5.55
2022-11-05T09:11:01.231Z,6.55
2022-11-05T09:13:32.594Z,6.53
2022-11-05T09:16:01.079Z,5.77
2022-11-05T09:18:31.266Z,7.03
2022-11-05T09:21:03.836Z,6.22
2022-11-05T09:23:32.753Z,5.10
2022-11-05T09:26:02.146Z,5.63
2022-11-05T09:28:35.294Z,6.57
2022-11-05T09:31:07.046Z,5.50
2022-11-05T09:33:36.395Z,5.85
2022-11-05T09:36:09.264Z,5.80
2022-11-05T09:38:38.545Z,5.25
2022-11-05T09:41:09.852Z,4.72
2022-11-05T09:43:40.909Z,6.00
2022-11-05T09:46:17.449Z,6.85
2022-11-05T09:48:49.163Z,5.60
2022-11-05T09:51:24.267Z,5.10
2022-11-05T09:53:53.856Z,4.57
2022-11-05T09:56:26.594Z,5.25
2022-11-05T09:58:59.366Z,4.75
2022-11-05T10:01:31.899Z,5.07
2022-11-05T10:04:13.717Z,4.82
2022-11-05T10:06:47.268Z,4.20
2022-11-05T10:09:22.747Z,3.88
2022-11-05T10:11:54.444Z,5.00
2022-11-05T10:14:25.454Z,4.30
2022-11-05T10:16:58.899Z,4.40
2022-11-05T10:19:38.688Z,4.22
2022-11-05T10:22:18.630Z,4.43
2022-11-05T10:24:48.749Z,4.22
2022-11-05T10:27:22.179Z,5.50
2022-11-05T10:29:52.424Z,4.18
2022-11-05T10:32:27.556Z,3.47
2022-11-05T10:34:57.735Z,4.43
2022-11-05T10:37:28.570Z,4.00
2022-11-05T10:39:57.779Z,3.88
2022-11-05T10:42:36.491Z,3.30
2022-11-05T10:45:20.465Z,3.80
2022-11-05T10:48:07.623Z,3.85
2022-11-05T10:50:39.490Z,3.85
2022-11-05T10:53:17.736Z,4.55
2022-11-05T10:55:50.700Z,3.60
2022-11-05T10:58:26.872Z,3.60
2022-11-05T11:01:11.679Z,3.58
2022-11-05T11:03:45.478Z,3.65
2022-11-05T11:06:21.634Z,2.90
2022-11-05T11:09:03.788Z,3.30
2022-11-05T11:11:34.968Z,2.50
2022-11-05T11:14:07.455Z,3.13
2022-11-05T11:16:38.763Z,2.28
2022-11-05T11:19:26.777Z,2.80
2022-11-05T11:22:22.351Z,2.22
2022-11-05T11:24:54.768Z,1.92
2022-11-05T11:30:00.324Z,2.90
2022-11-05T11:32:35.006Z,2.55
2022-11-05T11:35:06.067Z,2.65
2022-11-05T11:37:37.257Z,2.65
2022-11-05T11:40:22.897Z,2.67
2022-11-05T11:42:56.522Z,2.60
2022-11-05T11:45:29.174Z,2.33
2022-11-05T11:47:58.026Z,2.13
2022-11-05T11:50:43.622Z,2.65
2022-11-05T11:53:37.718Z,1.95
2022-11-05T11:56:18.309Z,2.05
2022-11-05T11:58:48.479Z,2.45
2022-11-05T12:01:48.528Z,2.30
2022-11-05T12:04:30.210Z,2.47
2022-11-05T12:07:12.250Z,2.33
2022-11-05T12:09:57.827Z,1.95
2022-11-05T12:12:35.591Z,2.70
2022-11-05T12:15:22.458Z,2.67
2022-11-05T12:17:55.368Z,2.53
2022-11-05T12:20:40.568Z,2.85
2022-11-05T12:23:20.707Z,2.28
2022-11-05T12:25:56.266Z,2.65
2022-11-05T12:29:16.596Z,2.60
2022-11-05T12:31:46.967Z,2.50
2022-11-05T12:34:26.489Z,2.03
2022-11-05T12:37:05.783Z,2.50
2022-11-05T12:39:45.046Z,3.15
2022-11-05T12:42:24.367Z,1.85
2022-11-05T12:45:01.758Z,2.05
2022-11-05T12:47:43.633Z,2.65
2022-11-05T12:50:18.019Z,2.85
2022-11-05T12:52:59.779Z,2.28
2022-11-05T12:55:30.575Z,2.10
2022-11-05T12:58:03.930Z,2.38
2022-11-05T13:00:33.562Z,2.25
2022-11-05T13:03:22.217Z,1.80
2022-11-05T13:05:59.133Z,2.13
2022-11-05T13:08:36.756Z,2.20
2022-11-05T13:11:20.114Z,2.15
2022-11-05T13:13:57.479Z,2.42
2022-11-05T13:16:34.563Z,2.38
2022-11-05T13:19:08.488Z,2.00
2022-11-05T13:21:37.737Z,2.60
2022-11-05T13:24:10.214Z,2.10
2022-11-05T13:26:42.895Z,3.08
2022-11-05T13:29:20.107Z,2.58
2022-11-05T13:31:54.661Z,2.42
2022-11-05T13:34:25.028Z,1.98
2022-11-05T13:37:15.400Z,2.15
2022-11-05T13:39:47.380Z,1.80
2022-11-05T13:42:39.633Z,3.00
2022-11-05T13:45:27.217Z,2.13
2022-11-05T13:48:12.382Z,2.00
2022-11-05T13:51:07.676Z,2.10
2022-11-05T13:53:50.955Z,1.80
2022-11-05T13:56:25.493Z,2.20
2022-11-05T13:59:21.583Z,1.65
2022-11-05T14:01:55.847Z,1.95
2022-11-05T14:04:34.191Z,1.73
2022-11-05T14:07:13.429Z,2.20
2022-11-05T14:09:47.582Z,2.17
2022-11-05T14:12:21.911Z,1.88
2022-11-05T14:14:58.936Z,2.60
2022-11-05T14:17:40.026Z,2.05
2022-11-05T14:20:47.631Z,1.92
2022-11-05T14:23:52.370Z,1.92
2022-11-05T14:26:23.795Z,1.88
2022-11-05T14:29:24.038Z,2.28
2022-11-05T14:32:08.823Z,2.58
2022-11-05T14:34:45.432Z,2.17
2022-11-05T14:37:33.908Z,2.42
2022-11-05T14:40:26.852Z,2.22
2022-11-05T14:42:56.372Z,2.70
2022-11-05T14:45:33.455Z,2.35
2022-11-05T14:48:03.192Z,2.17
2022-11-05T14:50:36.092Z,2.03
2022-11-05T14:53:27.577Z,2.08
2022-11-05T14:56:02.541Z,2.38
2022-11-05T14:58:36.434Z,2.17
2022-11-05T15:01:06.865Z,2.22
2022-11-05T15:04:01.049Z,2.70
2022-11-05T15:06:42.223Z,3.20
2022-11-05T15:09:30.932Z,2.50
2022-11-05T15:12:19.804Z,2.20
2022-11-05T15:14:57.229Z,2.40
2022-11-05T15:17:30.197Z,2.83
2022-11-05T15:20:08.202Z,1.95
2022-11-05T15:22:38.686Z,2.40
2022-11-05T15:25:17.287Z,2.70
2022-11-05T15:27:55.992Z,2.40
2022-11-05T15:30:25.676Z,2.30
2022-11-05T15:32:54.211Z,2.65
2022-11-05T15:35:27.018Z,2.90
2022-11-05T15:38:02.149Z,2.17
2022-11-05T15:40:34.215Z,2.50
2022-11-05T15:43:21.744Z,2.85
2022-11-05T15:46:06.517Z,2.10
2022-11-05T15:48:35.600Z,2.03
2022-11-05T15:51:04.507Z,2.95
2022-11-05T15:56:37.535Z,3.20
2022-11-05T15:59:07.911Z,3.13
2022-11-05T16:01:38.034Z,2.72
2022-11-05T16:04:15.140Z,2.85
2022-11-05T16:06:44.450Z,3.00
2022-11-05T16:09:22.835Z,2.92
2022-11-05T16:12:12.756Z,2.42
2022-11-05T16:14:41.390Z,2.40
2022-11-05T16:17:22.081Z,2.67
2022-11-05T16:19:50.755Z,3.35
2022-11-05T16:22:19.310Z,2.50
2022-11-05T16:24:47.882Z,3.33
2022-11-05T16:27:20.023Z,2.72
2022-11-05T16:29:51.028Z,2.67
2022-11-05T16:32:26.893Z,2.67
2022-11-05T16:34:59.600Z,3.22
2022-11-05T16:37:28.457Z,3.30
2022-11-05T16:39:57.059Z,2.72
2022-11-05T16:42:38.864Z,2.90
2022-11-05T16:45:14.832Z,3.92
2022-11-05T16:47:44.830Z,3.22
2022-11-05T16:50:18.918Z,2.78
2022-11-05T16:52:47.994Z,3.45
2022-11-05T16:55:20.725Z,2.72
2022-11-05T16:57:52.740Z,2.75
2022-11-05T17:00:22.238Z,3.85
2022-11-05T17:02:51.244Z,4.25
2022-11-05T17:05:22.511Z,3.05
2022-11-05T17:07:51.977Z,3.05
2022-11-05T17:10:21.232Z,3.35
2022-11-05T17:12:54.954Z,3.67
2022-11-05T17:15:27.081Z,3.58
2022-11-05T17:17:57.829Z,3.53
2022-11-05T17:20:38.319Z,3.53
2022-11-05T17:23:12.158Z,3.15
2022-11-05T17:25:45.227Z,3.10
2022-11-05T17:28:16.462Z,3.42
2022-11-05T17:30:52.289Z,3.67
2022-11-05T17:33:26.046Z,3.80
2022-11-05T17:35:59.511Z,3.95
2022-11-05T17:41:22.469Z,5.53
2022-11-05T17:43:58.752Z,4.22
2022-11-05T17:46:29.445Z,4.47
2022-11-05T17:48:58.456Z,4.97
2022-11-05T17:51:27.806Z,4.40
2022-11-05T17:53:56.092Z,4.55
2022-11-05T17:56:34.128Z,4.50
2022-11-05T17:59:04.692Z,4.63
2022-11-05T18:01:35.757Z,4.78
2022-11-05T18:04:09.334Z,4.55
2022-11-05T18:06:38.263Z,4.38
2022-11-05T18:09:08.564Z,4.53
2022-11-05T18:11:37.492Z,5.13
2022-11-05T18:14:09.814Z,4.32
2022-11-05T18:19:07.312Z,4.25
2022-11-05T18:21:35.721Z,4.53
2022-11-05T18:24:04.614Z,4.90
2022-11-05T18:26:33.829Z,6.75
2022-11-05T18:29:02.427Z,5.20
2022-11-05T18:31:34.372Z,5.00
2022-11-05T18:34:02.892Z,5.78
2022-11-05T18:36:33.752Z,5.43
2022-11-05T18:39:05.627Z,5.20
2022-11-05T18:41:36.320Z,4.93
2022-11-05T18:44:12.814Z,5.00
2022-11-05T18:46:57.745Z,5.32
2022-11-05T18:49:29.924Z,7.05
2022-11-05T18:52:00.053Z,4.43
2022-11-05T18:54:31.971Z,7.15
2022-11-05T18:57:07.858Z,6.50
2022-11-05T18:59:42.104Z,6.20
2022-11-05T19:02:16.477Z,6.47
2022-11-05T19:05:13.905Z,6.43
2022-11-05T19:07:37.467Z,5.68
2022-11-05T19:10:06.505Z,5.68
2022-11-05T19:12:35.388Z,6.50
2022-11-05T19:15:04.884Z,6.55
2022-11-05T19:17:36.616Z,5.80
2022-11-05T19:20:09.753Z,6.35
2022-11-05T19:22:38.188Z,6.57
2022-11-05T19:25:13.706Z,6.38
2022-11-05T19:27:44.050Z,6.88
2022-11-05T19:30:12.756Z,6.93
2022-11-05T19:32:47.474Z,7.57
2022-11-05T19:35:15.944Z,8.13
2022-11-05T19:37:45.497Z,7.95
2022-11-05T19:40:13.974Z,7.88
2022-11-05T19:42:42.151Z,7.70
2022-11-05T19:45:38.740Z,8.95
2022-11-05T19:48:05.191Z,8.93
2022-11-05T19:50:33.604Z,9.43
2022-11-05T19:53:02.762Z,9.52
2022-11-05T19:55:31.790Z,8.93
2022-11-05T19:58:00.285Z,9.68
2022-11-05T20:00:30.100Z,8.80
2022-11-05T20:02:59.564Z,8.60
2022-11-05T20:07:59.882Z,8.05
2022-11-05T20:10:29.339Z,8.90
2022-11-05T20:12:58.750Z,8.52
2022-11-05T20:15:26.780Z,9.20
2022-11-05T20:17:55.162Z,8.82
2022-11-05T20:20:23.896Z,8.95
2022-11-05T20:22:55.936Z,9.02
2022-11-05T20:25:24.122Z,9.00
2022-11-05T20:27:53.127Z,9.43
2022-11-05T20:30:23.443Z,10.30
2022-11-05T20:32:57.216Z,9.40
2022-11-05T20:35:27.483Z,9.65
2022-11-05T20:37:57.514Z,9.68
2022-11-05T20:40:25.831Z,8.65
2022-11-05T20:42:54.868Z,9.20
2022-11-05T20:45:23.697Z,8.00
2022-11-05T20:47:53.726Z,8.10
2022-11-05T20:50:23.433Z,8.80
2022-11-05T20:52:54.173Z,9.15
2022-11-05T20:55:25.586Z,9.07
2022-11-05T20:57:53.838Z,9.67
2022-11-05T21:00:22.632Z,9.15
2022-11-05T21:02:52.227Z,9.73
2022-11-05T21:05:21.965Z,9.05
2022-11-05T21:07:50.323Z,9.55
2022-11-05T21:10:19.373Z,9.15
2022-11-05T21:12:48.660Z,8.60
2022-11-05T21:15:20.241Z,8.63
2022-11-05T21:17:48.226Z,9.40
2022-11-05T21:20:16.544Z,9.13
2022-11-05T21:22:45.744Z,8.02
2022-11-05T21:25:14.194Z,8.27
2022-11-05T21:27:43.678Z,8.82
2022-11-05T21:30:15.376Z,9.45
2022-11-05T21:32:43.983Z,9.23
2022-11-05T21:35:12.035Z,8.45
2022-11-05T21:37:40.237Z,9.27
2022-11-05T21:40:10.971Z,8.68
2022-11-05T21:42:39.381Z,9.10
2022-11-05T21:45:08.174Z,8.95
2022-11-05T21:47:38.075Z,8.93
2022-11-05T21:50:06.932Z,8.52
2022-11-05T21:52:52.896Z,9.07
2022-11-05T21:55:53.156Z,8.93
2022-11-05T21:58:39.102Z,9.48
2022-11-05T22:01:07.186Z,8.57
2022-11-05T22:03:47.776Z,10.15
2022-11-05T22:06:17.555Z,11.25
2022-11-05T22:08:46.067Z,10.70
2022-11-05T22:11:14.260Z,11.52
2022-11-05T22:13:42.455Z,12.07
2022-11-05T22:16:10.420Z,10.75
2022-11-05T22:18:39.926Z,11.43
2022-11-05T22:21:08.555Z,10.80
2022-11-05T22:23:36.597Z,10.95
2022-11-05T22:26:04.806Z,12.32
2022-11-05T22:28:33.230Z,9.52
2022-11-05T22:31:02.778Z,9.73
2022-11-05T22:33:32.341Z,10.43
2022-11-05T22:36:02.414Z,10.55
2022-11-05T22:38:31.428Z,10.23
2022-11-05T22:41:00.067Z,9.50
2022-11-05T22:43:29.443Z,11.20
2022-11-05T22:46:00.187Z,8.98
2022-11-05T22:48:28.266Z,9.82
2022-11-05T22:50:58.983Z,8.70
2022-11-05T22:53:29.132Z,9.50
2022-11-05T22:55:59.813Z,8.27
2022-11-05T22:58:28.186Z,9.00
2022-11-05T23:00:56.197Z,7.60
2022-11-05T23:03:25.622Z,9.30
2022-11-05T23:05:58.979Z,9.23
2022-11-05T23:08:46.881Z,8.63
2022-11-05T23:11:35.014Z,8.02
2022-11-05T23:14:04.220Z,9.07
2022-11-05T23:16:58.580Z,8.07
2022-11-05T23:19:45.614Z,7.35
2022-11-05T23:22:32.378Z,9.32
2022-11-05T23:25:02.072Z,8.27
2022-11-05T23:27:31.494Z,8.63
2022-11-05T23:30:01.389Z,8.57
2022-11-05T23:32:30.846Z,9.43
2022-11-05T23:35:00.293Z,7.72
2022-11-05T23:37:47.771Z,8.25
2022-11-05T23:40:18.894Z,7.78
2022-11-05T23:43:05.376Z,8.43
2022-11-05T23:45:51.946Z,8.32
2022-11-05T23:48:23.266Z,9.20
2022-11-05T23:50:53.806Z,8.15
2022-11-05T23:53:21.865Z,9.07
2022-11-05T23:55:51.711Z,9.23
2022-11-05T23:58:20.092Z,9.13
